Time;durP1;ratioP1;P1;durP2;ratioP2;P2;SDS_P1;SDS_P2;PMS_P1;PMS_P2;Temp;Humidity;BMP_temperature;BMP_pressure;BME280_temperature;BME280_humidity;BME280_pressure;Samples;Min_cycle;Max_cycle;Signal;HPM_P1;HPM_P2
2022/04/02 00:00:58;;;;;;;7.43;4.80;;;;;;;;;;4953786;29;20042;-70
2022/04/02 00:03:25;;;;;;;5.68;4.72;;;;;;;;;;4954086;29;20065;-70
2022/04/02 00:05:52;;;;;;;6.50;4.72;;;;;;;;;;4953592;29;20035;-70
2022/04/02 00:08:18;;;;;;;7.45;4.60;;;;;;;;;;4954785;29;20031;-70
2022/04/02 00:10:45;;;;;;;4.72;4.20;;;;;;;;;;4944760;29;20436;-70
2022/04/02 00:13:11;;;;;;;5.18;4.00;;;;;;;;;;4953465;29;20031;-70
2022/04/02 00:15:37;;;;;;;5.20;4.22;;;;;;;;;;4953661;29;20480;-70
2022/04/02 00:18:04;;;;;;;6.00;4.50;;;;;;;;;;4953788;29;20025;-70
2022/04/02 00:20:30;;;;;;;5.88;4.50;;;;;;;;;;4945661;29;20027;-70
2022/04/02 00:25:41;;;;;;;5.15;4.57;;;;;;;;;;4953603;28;20512;-70
2022/04/02 00:28:08;;;;;;;5.25;4.65;;;;;;;;;;4952340;29;20037;-70
2022/04/02 00:30:34;;;;;;;5.32;4.45;;;;;;;;;;4953269;29;20540;-70
2022/04/02 00:33:00;;;;;;;7.60;5.57;;;;;;;;;;4953572;29;20031;-70
2022/04/02 00:35:27;;;;;;;7.25;5.35;;;;;;;;;;4953269;29;20019;-70
2022/04/02 00:37:53;;;;;;;7.50;5.25;;;;;;;;;;4954747;29;20030;-70
2022/04/02 00:40:19;;;;;;;6.45;5.07;;;;;;;;;;4953471;29;20035;-70
2022/04/02 00:42:47;;;;;;;6.55;5.22;;;;;;;;;;4935623;29;20024;-70
2022/04/02 00:45:13;;;;;;;6.45;5.30;;;;;;;;;;4952967;29;20492;-70
2022/04/02 00:47:39;;;;;;;7.68;5.80;;;;;;;;;;4946882;29;20019;-70
2022/04/02 00:50:06;;;;;;;7.50;5.90;;;;;;;;;;4953788;29;20097;-70
2022/04/02 00:52:32;;;;;;;7.90;6.20;;;;;;;;;;4953327;29;20035;-70
2022/04/02 00:54:58;;;;;;;6.93;5.38;;;;;;;;;;4952939;29;20382;-70
2022/04/02 00:57:25;;;;;;;7.40;5.13;;;;;;;;;;4952710;29;20522;-70
2022/04/02 00:59:51;;;;;;;6.18;5.22;;;;;;;;;;4952779;29;20493;-70
2022/04/02 01:02:19;;;;;;;7.25;5.80;;;;;;;;;;4953960;29;20043;-69
2022/04/02 01:04:46;;;;;;;7.45;5.95;;;;;;;;;;4952572;28;20380;-69
2022/04/02 01:07:14;;;;;;;7.35;5.70;;;;;;;;;;4952607;29;20027;-70
2022/04/02 01:09:40;;;;;;;7.70;5.78;;;;;;;;;;4952498;29;20020;-69
2022/04/02 01:12:07;;;;;;;7.60;6.30;;;;;;;;;;4952925;29;20031;-70
2022/04/02 01:14:33;;;;;;;7.78;6.38;;;;;;;;;;4952663;29;20038;-70
2022/04/02 01:17:01;;;;;;;6.55;5.57;;;;;;;;;;4953777;29;20493;-69
2022/04/02 01:19:28;;;;;;;8.00;5.88;;;;;;;;;;4952421;29;20057;-69
2022/04/02 01:21:54;;;;;;;7.97;6.18;;;;;;;;;;4952300;29;20047;-70
2022/04/02 01:24:21;;;;;;;9.02;6.35;;;;;;;;;;4952284;29;20488;-69
2022/04/02 01:26:48;;;;;;;7.25;6.00;;;;;;;;;;4952499;29;20039;-70
2022/04/02 01:29:14;;;;;;;7.50;6.05;;;;;;;;;;4953515;29;20027;-70
2022/04/02 01:31:44;;;;;;;9.10;6.53;;;;;;;;;;4952871;29;20037;-70
2022/04/02 01:34:10;;;;;;;9.75;6.55;;;;;;;;;;4951920;29;20031;-70
2022/04/02 01:36:37;;;;;;;8.43;6.65;;;;;;;;;;4952216;29;20049;-70
2022/04/02 01:39:03;;;;;;;11.25;6.35;;;;;;;;;;4952374;29;20074;-69
2022/04/02 01:41:30;;;;;;;8.05;6.28;;;;;;;;;;4952107;29;20054;-69
2022/04/02 01:43:56;;;;;;;9.57;6.68;;;;;;;;;;4953406;29;20030;-70
2022/04/02 01:46:22;;;;;;;7.70;6.40;;;;;;;;;;4953417;29;20062;-70
2022/04/02 01:48:49;;;;;;;11.68;7.10;;;;;;;;;;4951845;29;20016;-70
2022/04/02 01:51:15;;;;;;;7.22;6.20;;;;;;;;;;4952093;29;20034;-69
2022/04/02 01:53:42;;;;;;;8.23;6.28;;;;;;;;;;4952107;29;20042;-69
2022/04/02 01:56:09;;;;;;;7.18;6.22;;;;;;;;;;4953177;29;20364;-69
2022/04/02 01:58:36;;;;;;;8.10;6.18;;;;;;;;;;4952497;29;20396;-70
2022/04/02 02:01:02;;;;;;;8.75;7.00;;;;;;;;;;4951942;29;20041;-70
2022/04/02 02:03:28;;;;;;;7.90;6.60;;;;;;;;;;4951920;29;20031;-70
2022/04/02 02:05:55;;;;;;;8.88;6.72;;;;;;;;;;4951903;29;20053;-70
2022/04/02 02:08:23;;;;;;;9.63;7.13;;;;;;;;;;4953678;29;20081;-70
2022/04/02 02:10:49;;;;;;;10.98;7.07;;;;;;;;;;4953018;29;20035;-70
2022/04/02 02:13:15;;;;;;;9.93;6.80;;;;;;;;;;4951924;29;20053;-70
2022/04/02 02:15:42;;;;;;;8.75;6.85;;;;;;;;;;4952312;28;20023;-70
2022/04/02 02:18:08;;;;;;;9.48;7.03;;;;;;;;;;4955500;29;20023;-70
2022/04/02 02:20:34;;;;;;;7.93;6.72;;;;;;;;;;4955720;29;20027;-69
2022/04/02 02:23:01;;;;;;;9.52;6.63;;;;;;;;;;4956818;29;20041;-69
2022/04/02 02:25:27;;;;;;;8.25;6.60;;;;;;;;;;4956146;29;20415;-70
2022/04/02 02:27:54;;;;;;;8.20;6.30;;;;;;;;;;4955575;29;20027;-69
2022/04/02 02:30:20;;;;;;;8.32;6.63;;;;;;;;;;4955458;29;20037;-69
2022/04/02 02:32:46;;;;;;;8.60;6.82;;;;;;;;;;4955799;29;20035;-70
2022/04/02 02:38:09;;;;;;;7.60;6.20;;;;;;;;;;4953875;29;20037;-70
2022/04/02 02:40:36;;;;;;;7.78;6.22;;;;;;;;;;4955247;29;20069;-69
2022/04/02 02:43:03;;;;;;;8.20;6.20;;;;;;;;;;4955096;29;20031;-70
2022/04/02 02:45:31;;;;;;;7.55;6.18;;;;;;;;;;4955102;29;20054;-70
2022/04/02 02:47:58;;;;;;;7.88;6.22;;;;;;;;;;4955012;29;20028;-70
2022/04/02 02:50:25;;;;;;;7.78;6.28;;;;;;;;;;4955952;29;20023;-70
2022/04/02 02:52:51;;;;;;;7.32;5.90;;;;;;;;;;4956223;29;20039;-69
2022/04/02 02:55:18;;;;;;;7.88;6.13;;;;;;;;;;4942524;29;20038;-70
2022/04/02 02:57:45;;;;;;;7.63;5.80;;;;;;;;;;4954775;29;20408;-70
2022/04/02 03:00:12;;;;;;;7.38;5.60;;;;;;;;;;4954994;29;20027;-69
2022/04/02 03:02:39;;;;;;;6.78;5.30;;;;;;;;;;4954794;29;20027;-69
2022/04/02 03:05:09;;;;;;;7.30;6.03;;;;;;;;;;4955793;29;20416;-69
2022/04/02 03:07:36;;;;;;;7.60;6.38;;;;;;;;;;4955471;29;20043;-69
2022/04/02 03:10:03;;;;;;;8.43;6.18;;;;;;;;;;4954489;29;20057;-70
2022/04/02 03:12:29;;;;;;;8.40;6.32;;;;;;;;;;4954651;29;20029;-69
2022/04/02 03:14:56;;;;;;;8.55;6.57;;;;;;;;;;4954281;29;20039;-70
2022/04/02 03:17:22;;;;;;;8.25;6.53;;;;;;;;;;4955894;29;20019;-70
2022/04/02 03:19:48;;;;;;;9.02;6.60;;;;;;;;;;4955613;29;20031;-69
2022/04/02 03:22:15;;;;;;;9.32;6.47;;;;;;;;;;4954548;29;20042;-70
2022/04/02 03:24:41;;;;;;;9.18;7.38;;;;;;;;;;4954190;29;20066;-69
2022/04/02 03:27:07;;;;;;;10.38;6.47;;;;;;;;;;4953885;28;20031;-70
2022/04/02 03:29:34;;;;;;;8.38;6.65;;;;;;;;;;4954079;29;20492;-69
2022/04/02 03:32:00;;;;;;;9.30;7.03;;;;;;;;;;4955676;29;20027;-70
2022/04/02 03:34:26;;;;;;;10.05;7.10;;;;;;;;;;4954467;29;20436;-69
2022/04/02 03:36:53;;;;;;;10.10;7.85;;;;;;;;;;4940857;29;20032;-69
2022/04/02 03:39:19;;;;;;;9.48;7.10;;;;;;;;;;4954350;29;20031;-70
2022/04/02 03:41:45;;;;;;;11.63;7.75;;;;;;;;;;4954150;29;20028;-69
2022/04/02 03:44:11;;;;;;;8.40;6.15;;;;;;;;;;4953950;29;20031;-70
2022/04/02 03:49:23;;;;;;;8.88;6.75;;;;;;;;;;4955616;29;20485;-69
2022/04/02 03:51:51;;;;;;;9.85;7.75;;;;;;;;;;4954155;29;20034;-70
2022/04/02 03:54:17;;;;;;;10.27;6.85;;;;;;;;;;4953892;29;20026;-69
2022/04/02 03:56:44;;;;;;;9.65;7.00;;;;;;;;;;4954233;29;20039;-70
2022/04/02 03:59:11;;;;;;;10.40;7.32;;;;;;;;;;4954608;29;20035;-69
2022/04/02 04:01:38;;;;;;;10.93;7.57;;;;;;;;;;4954434;29;20035;-70
2022/04/02 04:04:04;;;;;;;9.18;7.18;;;;;;;;;;4953693;29;20073;-70
2022/04/02 04:06:34;;;;;;;10.80;7.35;;;;;;;;;;4953719;29;20037;-69
2022/04/02 04:09:00;;;;;;;12.30;7.18;;;;;;;;;;4953700;29;20031;-70
2022/04/02 04:11:27;;;;;;;8.88;6.75;;;;;;;;;;4954008;29;20031;-70
2022/04/02 04:13:54;;;;;;;7.82;6.65;;;;;;;;;;4954528;29;20480;-70
2022/04/02 04:16:20;;;;;;;10.10;6.68;;;;;;;;;;4953815;29;20037;-70
2022/04/02 04:18:47;;;;;;;8.52;6.50;;;;;;;;;;4953750;29;20062;-70
2022/04/02 04:21:14;;;;;;;8.38;6.57;;;;;;;;;;4953336;29;20051;-70
2022/04/02 04:23:42;;;;;;;10.10;7.30;;;;;;;;;;4963566;28;20043;-69
2022/04/02 04:26:09;;;;;;;9.05;6.80;;;;;;;;;;4954506;29;20042;-70
2022/04/02 04:28:35;;;;;;;8.85;6.72;;;;;;;;;;4953389;29;20030;-69
2022/04/02 04:31:02;;;;;;;8.82;6.60;;;;;;;;;;4953145;29;20027;-70
2022/04/02 04:33:28;;;;;;;9.75;7.07;;;;;;;;;;4953240;29;20414;-70
2022/04/02 04:35:55;;;;;;;12.82;7.20;;;;;;;;;;4953103;29;20029;-69
2022/04/02 04:38:21;;;;;;;8.98;7.28;;;;;;;;;;4953551;28;20030;-70
2022/04/02 04:40:47;;;;;;;9.18;6.68;;;;;;;;;;4953369;29;20038;-70
2022/04/02 04:43:14;;;;;;;8.95;7.07;;;;;;;;;;4952934;29;20039;-70
2022/04/02 04:45:40;;;;;;;10.43;7.47;;;;;;;;;;4953210;29;20024;-69
2022/04/02 04:48:07;;;;;;;8.82;6.35;;;;;;;;;;4952790;29;20472;-70
2022/04/02 04:50:34;;;;;;;8.70;6.57;;;;;;;;;;4952920;29;20019;-69
2022/04/02 04:53:02;;;;;;;8.63;6.38;;;;;;;;;;4954141;29;20031;-70
2022/04/02 04:55:29;;;;;;;7.78;6.30;;;;;;;;;;4940076;29;20023;-70
2022/04/02 04:57:55;;;;;;;7.88;6.30;;;;;;;;;;4952734;29;20049;-70
2022/04/02 05:00:22;;;;;;;6.65;5.50;;;;;;;;;;4952597;29;20035;-69
2022/04/02 05:02:48;;;;;;;8.55;5.95;;;;;;;;;;4953199;29;20087;-70
2022/04/02 05:05:15;;;;;;;8.00;5.50;;;;;;;;;;4953963;29;20058;-69
2022/04/02 05:07:41;;;;;;;7.65;5.95;;;;;;;;;;4953026;29;20023;-70
2022/04/02 05:10:08;;;;;;;6.53;5.43;;;;;;;;;;4952244;29;20039;-70
2022/04/02 05:12:36;;;;;;;7.20;5.60;;;;;;;;;;4952450;29;20023;-70
2022/04/02 05:15:03;;;;;;;7.00;5.32;;;;;;;;;;4952462;29;20030;-70
2022/04/02 05:17:29;;;;;;;8.10;6.00;;;;;;;;;;4952607;29;20377;-70
2022/04/02 05:19:56;;;;;;;6.72;5.18;;;;;;;;;;4953774;29;20163;-70
2022/04/02 05:22:22;;;;;;;7.30;5.80;;;;;;;;;;4952917;29;20043;-70
2022/04/02 05:24:48;;;;;;;9.25;6.50;;;;;;;;;;4951739;29;20047;-70
2022/04/02 05:27:16;;;;;;;6.88;5.72;;;;;;;;;;4952077;29;20425;-70
2022/04/02 05:29:43;;;;;;;7.40;5.95;;;;;;;;;;4946556;29;20019;-70
2022/04/02 05:32:10;;;;;;;8.18;5.93;;;;;;;;;;4953445;29;20033;-70
2022/04/02 05:34:37;;;;;;;8.30;6.28;;;;;;;;;;4952816;29;20408;-69
2022/04/02 05:37:03;;;;;;;7.53;5.90;;;;;;;;;;4939164;29;20037;-70
2022/04/02 05:39:29;;;;;;;7.25;6.05;;;;;;;;;;4951853;29;20049;-69
2022/04/02 05:41:57;;;;;;;8.80;7.10;;;;;;;;;;4924143;29;20041;-70
2022/04/02 05:44:24;;;;;;;7.90;6.20;;;;;;;;;;4932758;29;20027;-69
2022/04/02 05:46:50;;;;;;;13.82;9.95;;;;;;;;;;4952645;29;20027;-70
2022/04/02 05:49:17;;;;;;;9.55;7.25;;;;;;;;;;4953500;29;20054;-69
2022/04/02 05:51:44;;;;;;;9.73;7.20;;;;;;;;;;4951826;29;20027;-69
2022/04/02 05:54:10;;;;;;;8.43;6.28;;;;;;;;;;4937602;29;20032;-70
2022/04/02 05:56:37;;;;;;;8.50;6.72;;;;;;;;;;4952040;29;20109;-70
2022/04/02 05:59:07;;;;;;;10.55;6.88;;;;;;;;;;4953599;29;20027;-70
2022/04/02 06:01:34;;;;;;;8.67;6.93;;;;;;;;;;4953662;29;20057;-69
2022/04/02 06:04:01;;;;;;;8.18;6.60;;;;;;;;;;4951906;29;20404;-70
2022/04/02 06:06:27;;;;;;;9.80;7.80;;;;;;;;;;4942751;29;20023;-69
2022/04/02 06:08:54;;;;;;;10.88;7.57;;;;;;;;;;4951701;29;20023;-69
2022/04/02 06:11:20;;;;;;;10.50;7.30;;;;;;;;;;4943422;29;20028;-70
2022/04/02 06:13:47;;;;;;;22.25;13.05;;;;;;;;;;4953514;29;20036;-70
2022/04/02 06:16:13;;;;;;;15.00;10.07;;;;;;;;;;4951897;29;20035;-69
2022/04/02 06:18:39;;;;;;;9.20;7.03;;;;;;;;;;4951745;29;20019;-70
2022/04/02 06:21:06;;;;;;;8.32;6.28;;;;;;;;;;4951943;29;20034;-70
2022/04/02 06:23:33;;;;;;;8.02;6.72;;;;;;;;;;4951662;29;20023;-69
2022/04/02 06:25:59;;;;;;;12.13;8.00;;;;;;;;;;4952780;29;20535;-69
2022/04/02 06:28:26;;;;;;;13.10;8.30;;;;;;;;;;4952198;29;20035;-69
2022/04/02 06:30:52;;;;;;;8.18;6.63;;;;;;;;;;4952048;29;20031;-70
2022/04/02 06:33:18;;;;;;;9.40;6.78;;;;;;;;;;4951747;29;20015;-70
2022/04/02 06:35:45;;;;;;;10.75;8.32;;;;;;;;;;4951745;29;20089;-70
2022/04/02 06:38:13;;;;;;;54.40;24.15;;;;;;;;;;4952416;29;20035;-70
2022/04/02 06:40:39;;;;;;;16.65;9.85;;;;;;;;;;4952467;29;20039;-69
2022/04/02 06:43:06;;;;;;;19.60;11.52;;;;;;;;;;4951998;29;20035;-70
2022/04/02 06:45:32;;;;;;;22.27;14.65;;;;;;;;;;4951845;29;20030;-70
2022/04/02 06:47:59;;;;;;;16.80;12.68;;;;;;;;;;4951596;29;20385;-70
2022/04/02 06:50:25;;;;;;;12.05;9.45;;;;;;;;;;4943553;29;20042;-69
2022/04/02 06:52:51;;;;;;;11.50;9.60;;;;;;;;;;4952611;29;20032;-69
2022/04/02 06:55:18;;;;;;;12.45;8.85;;;;;;;;;;4951783;29;20406;-69
2022/04/02 06:57:50;;;;;;;8.25;6.60;;;;;;;;;;4951416;29;20401;-70
2022/04/02 07:00:17;;;;;;;8.43;6.65;;;;;;;;;;4951659;29;20027;-69
2022/04/02 07:02:44;;;;;;;9.85;8.25;;;;;;;;;;4953246;28;20044;-70
2022/04/02 07:05:11;;;;;;;8.60;7.10;;;;;;;;;;4956139;29;20518;-70
2022/04/02 07:07:37;;;;;;;9.82;7.55;;;;;;;;;;4955463;29;20035;-70
2022/04/02 07:10:06;;;;;;;9.15;7.13;;;;;;;;;;4954659;29;20024;-70
2022/04/02 07:12:33;;;;;;;9.00;6.95;;;;;;;;;;4954690;29;20042;-70
2022/04/02 07:15:00;;;;;;;9.43;6.88;;;;;;;;;;4954722;29;20028;-70
2022/04/02 07:17:27;;;;;;;9.95;8.38;;;;;;;;;;4955084;29;20027;-70
2022/04/02 07:19:55;;;;;;;12.18;8.25;;;;;;;;;;4955913;29;20480;-69
2022/04/02 07:22:23;;;;;;;9.10;6.60;;;;;;;;;;4954378;29;20042;-69
2022/04/02 07:24:51;;;;;;;10.50;7.55;;;;;;;;;;4954423;29;20574;-69
2022/04/02 07:27:22;;;;;;;13.80;9.45;;;;;;;;;;4954380;29;20031;-70
2022/04/02 07:29:52;;;;;;;12.10;8.10;;;;;;;;;;4954824;29;20445;-70
2022/04/02 07:32:19;;;;;;;8.23;6.65;;;;;;;;;;4955682;29;20411;-70
2022/04/02 07:34:45;;;;;;;12.38;8.25;;;;;;;;;;4955050;29;20023;-70
2022/04/02 07:37:18;;;;;;;13.10;8.65;;;;;;;;;;4953997;29;20058;-69
2022/04/02 07:39:48;;;;;;;10.95;8.00;;;;;;;;;;4954178;29;20024;-70
2022/04/02 07:42:22;;;;;;;10.63;7.57;;;;;;;;;;4954288;29;20047;-70
2022/04/02 07:44:58;;;;;;;10.40;6.50;;;;;;;;;;4949443;29;20015;-70
2022/04/02 07:47:29;;;;;;;9.82;7.13;;;;;;;;;;4940216;29;20518;-70
2022/04/02 07:49:59;;;;;;;10.40;7.25;;;;;;;;;;4955135;29;20027;-70
2022/04/02 07:52:25;;;;;;;8.93;6.80;;;;;;;;;;4954936;29;20037;-70
2022/04/02 07:54:55;;;;;;;8.15;6.70;;;;;;;;;;4938303;29;20031;-69
2022/04/02 07:57:24;;;;;;;9.02;6.63;;;;;;;;;;4954114;29;20276;-70
2022/04/02 07:59:54;;;;;;;10.45;7.32;;;;;;;;;;4954098;29;20033;-70
2022/04/02 08:02:38;;;;;;;8.07;6.33;;;;;;;;;;4939868;29;20035;-70
2022/04/02 08:05:08;;;;;;;9.27;7.03;;;;;;;;;;4954668;29;20275;-70
2022/04/02 08:07:36;;;;;;;18.80;9.63;;;;;;;;;;4953934;29;20031;-70
2022/04/02 08:10:05;;;;;;;9.07;6.90;;;;;;;;;;4953903;29;20031;-69
2022/04/02 08:12:33;;;;;;;16.10;9.02;;;;;;;;;;4953826;28;20038;-70
2022/04/02 08:14:59;;;;;;;8.80;6.28;;;;;;;;;;4953729;29;20023;-70
2022/04/02 08:17:27;;;;;;;7.85;6.53;;;;;;;;;;4954125;29;20035;-70
2022/04/02 08:19:54;;;;;;;11.20;8.40;;;;;;;;;;4954710;29;20496;-69
2022/04/02 08:22:21;;;;;;;9.95;6.60;;;;;;;;;;4953883;29;20035;-70
2022/04/02 08:24:50;;;;;;;8.50;6.75;;;;;;;;;;4953471;29;20039;-70
2022/04/02 08:27:37;;;;;;;20.35;11.45;;;;;;;;;;4953445;29;20028;-70
2022/04/02 08:30:16;;;;;;;11.75;8.48;;;;;;;;;;4883401;29;20064;-69
2022/04/02 08:32:42;;;;;;;8.95;7.38;;;;;;;;;;4878238;29;20053;-70
2022/04/02 08:35:09;;;;;;;10.02;7.38;;;;;;;;;;4877552;29;20037;-70
2022/04/02 08:37:48;;;;;;;10.32;6.90;;;;;;;;;;4880126;29;20048;-70
2022/04/02 08:40:33;;;;;;;9.05;7.03;;;;;;;;;;4879542;29;20037;-69
2022/04/02 08:43:02;;;;;;;9.48;6.57;;;;;;;;;;4879520;29;20033;-70
2022/04/02 08:45:30;;;;;;;10.75;7.63;;;;;;;;;;4879577;29;20047;-70
2022/04/02 08:48:08;;;;;;;9.98;7.32;;;;;;;;;;4878707;29;20029;-70
2022/04/02 08:50:36;;;;;;;8.93;6.65;;;;;;;;;;4876945;29;20511;-70
2022/04/02 08:53:23;;;;;;;7.80;6.10;;;;;;;;;;4878300;29;20390;-69
2022/04/02 08:55:51;;;;;;;8.60;7.15;;;;;;;;;;4887158;29;20461;-70
2022/04/02 08:58:23;;;;;;;10.32;6.88;;;;;;;;;;4880592;29;20037;-69
2022/04/02 09:01:09;;;;;;;9.20;7.00;;;;;;;;;;4875542;29;20048;-70
2022/04/02 09:03:55;;;;;;;8.32;6.65;;;;;;;;;;4878783;29;20491;-70
2022/04/02 09:06:24;;;;;;;9.18;7.32;;;;;;;;;;4892790;29;20041;-69
2022/04/02 09:08:56;;;;;;;9.30;7.05;;;;;;;;;;4952919;29;20357;-70
2022/04/02 09:11:24;;;;;;;9.82;7.22;;;;;;;;;;4938699;29;20027;-69
2022/04/02 09:14:09;;;;;;;10.85;7.55;;;;;;;;;;4953837;29;20043;-70
2022/04/02 09:16:37;;;;;;;9.10;6.10;;;;;;;;;;4952418;29;20480;-70
2022/04/02 09:19:04;;;;;;;7.47;5.95;;;;;;;;;;4952611;29;20035;-70
2022/04/02 09:21:39;;;;;;;10.25;5.93;;;;;;;;;;4952600;29;20035;-69
2022/04/02 09:24:09;;;;;;;7.72;5.72;;;;;;;;;;4952483;28;20035;-69
2022/04/02 09:26:38;;;;;;;9.13;5.88;;;;;;;;;;4952213;29;20043;-70
2022/04/02 09:29:16;;;;;;;6.63;5.70;;;;;;;;;;4952287;29;20523;-70
2022/04/02 09:31:57;;;;;;;8.27;6.00;;;;;;;;;;4953205;29;20023;-70
2022/04/02 09:34:41;;;;;;;7.23;5.67;;;;;;;;;;4953027;29;20019;-70
2022/04/02 09:37:27;;;;;;;7.72;6.07;;;;;;;;;;4952199;29;20035;-70
2022/04/02 09:40:06;;;;;;;7.82;6.10;;;;;;;;;;4952349;29;20026;-70
2022/04/02 09:42:36;;;;;;;10.82;6.60;;;;;;;;;;4952270;29;20041;-69
2022/04/02 09:45:13;;;;;;;7.72;6.10;;;;;;;;;;4952626;29;20054;-70
2022/04/02 09:47:49;;;;;;;7.20;6.20;;;;;;;;;;4952124;29;20027;-69
2022/04/02 09:50:19;;;;;;;6.07;5.45;;;;;;;;;;4953418;29;20019;-70
2022/04/02 09:52:46;;;;;;;7.53;5.88;;;;;;;;;;4952991;29;20031;-70
2022/04/02 09:55:13;;;;;;;11.38;6.20;;;;;;;;;;4952439;29;20027;-71
2022/04/02 09:57:46;;;;;;;9.73;6.35;;;;;;;;;;4952454;29;20031;-69
2022/04/02 10:00:22;;;;;;;9.00;6.70;;;;;;;;;;4952035;29;20019;-70
2022/04/02 10:02:54;;;;;;;8.30;6.30;;;;;;;;;;4952121;29;20440;-70
2022/04/02 10:05:24;;;;;;;7.45;5.93;;;;;;;;;;4937988;29;20030;-70
2022/04/02 10:07:50;;;;;;;6.70;5.35;;;;;;;;;;4953923;29;20031;-70
2022/04/02 10:10:18;;;;;;;11.13;6.93;;;;;;;;;;4952356;29;20400;-70
2022/04/02 10:12:48;;;;;;;7.10;6.07;;;;;;;;;;4952052;29;20027;-70
2022/04/02 10:15:15;;;;;;;7.50;5.63;;;;;;;;;;4951875;29;20029;-70
2022/04/02 10:17:46;;;;;;;6.03;4.90;;;;;;;;;;4951967;29;20031;-70
2022/04/02 10:20:14;;;;;;;10.85;5.68;;;;;;;;;;4953154;29;20476;-70
2022/04/02 10:22:45;;;;;;;6.93;5.40;;;;;;;;;;4952414;29;20102;-70
2022/04/02 10:25:12;;;;;;;7.93;6.05;;;;;;;;;;4951698;29;20385;-70
2022/04/02 10:27:40;;;;;;;8.60;5.75;;;;;;;;;;4952056;29;20028;-70
2022/04/02 10:30:09;;;;;;;7.70;5.50;;;;;;;;;;4951794;29;20035;-70
2022/04/02 10:32:38;;;;;;;8.48;5.47;;;;;;;;;;4952066;29;20384;-70
2022/04/02 10:35:06;;;;;;;7.22;5.45;;;;;;;;;;4953035;29;20081;-70
2022/04/02 10:37:39;;;;;;;7.22;5.55;;;;;;;;;;4954405;28;20019;-70
2022/04/02 10:40:08;;;;;;;8.80;5.70;;;;;;;;;;4955533;29;20027;-70
2022/04/02 10:42:42;;;;;;;7.72;5.88;;;;;;;;;;4955464;29;20041;-70
2022/04/02 10:45:10;;;;;;;6.40;5.03;;;;;;;;;;4955372;29;20400;-70
2022/04/02 10:47:42;;;;;;;7.72;5.25;;;;;;;;;;4955574;29;20015;-70
2022/04/02 10:50:09;;;;;;;5.85;5.05;;;;;;;;;;4956626;29;20031;-70
2022/04/02 10:52:36;;;;;;;9.07;5.03;;;;;;;;;;4956113;29;20081;-70
2022/04/02 10:55:03;;;;;;;9.63;4.80;;;;;;;;;;4955285;29;20555;-70
2022/04/02 10:57:30;;;;;;;6.90;4.90;;;;;;;;;;4955299;29;20023;-70
2022/04/02 11:00:00;;;;;;;5.35;4.60;;;;;;;;;;4955028;29;20019;-70
2022/04/02 11:02:30;;;;;;;5.55;4.90;;;;;;;;;;4955509;29;20049;-70
2022/04/02 11:05:03;;;;;;;7.35;4.90;;;;;;;;;;4953322;29;20416;-70
2022/04/02 11:07:35;;;;;;;6.03;5.13;;;;;;;;;;4956075;29;20027;-70
2022/04/02 11:10:01;;;;;;;6.10;4.68;;;;;;;;;;4955261;29;20023;-70
2022/04/02 11:12:38;;;;;;;5.32;4.35;;;;;;;;;;4954808;29;20019;-70
2022/04/02 11:15:21;;;;;;;8.85;4.63;;;;;;;;;;4948295;29;20046;-70
2022/04/02 11:17:48;;;;;;;5.70;4.15;;;;;;;;;;4954890;29;20035;-70
2022/04/02 11:20:17;;;;;;;8.57;4.13;;;;;;;;;;4955916;29;20031;-70
2022/04/02 11:22:59;;;;;;;8.63;5.70;;;;;;;;;;4955310;29;20530;-70
2022/04/02 11:25:31;;;;;;;5.88;4.43;;;;;;;;;;4955189;28;20415;-70
2022/04/02 11:28:03;;;;;;;8.10;4.65;;;;;;;;;;4954416;29;20039;-70
2022/04/02 11:30:31;;;;;;;5.65;4.38;;;;;;;;;;4954769;29;20415;-70
2022/04/02 11:33:04;;;;;;;5.70;4.63;;;;;;;;;;4954828;29;20027;-70
2022/04/02 11:35:31;;;;;;;5.93;4.68;;;;;;;;;;4954844;29;20424;-70
2022/04/02 11:38:09;;;;;;;6.10;4.40;;;;;;;;;;4956041;29;20031;-70
2022/04/02 11:40:39;;;;;;;5.13;3.88;;;;;;;;;;4955133;29;20369;-70
2022/04/02 11:43:06;;;;;;;7.25;4.47;;;;;;;;;;4954218;29;20089;-70
2022/04/02 11:45:33;;;;;;;5.05;4.03;;;;;;;;;;4954588;29;20024;-70
2022/04/02 11:48:08;;;;;;;7.82;4.22;;;;;;;;;;4954115;28;20086;-70
2022/04/02 11:50:38;;;;;;;6.70;4.03;;;;;;;;;;4954385;29;20037;-70
2022/04/02 11:53:04;;;;;;;4.80;3.78;;;;;;;;;;4955498;29;20023;-70
2022/04/02 11:55:34;;;;;;;5.72;4.15;;;;;;;;;;4954754;29;20035;-70
2022/04/02 11:58:03;;;;;;;5.45;3.92;;;;;;;;;;4954051;29;20034;-70
2022/04/02 12:00:34;;;;;;;5.03;4.25;;;;;;;;;;4954098;29;20023;-70
2022/04/02 12:03:01;;;;;;;5.43;3.90;;;;;;;;;;4953974;29;20049;-70
2022/04/02 12:05:38;;;;;;;6.28;3.55;;;;;;;;;;4954405;29;20035;-70
2022/04/02 12:08:04;;;;;;;6.50;4.40;;;;;;;;;;4953252;29;20476;-70
2022/04/02 12:10:32;;;;;;;6.13;4.38;;;;;;;;;;4954142;29;20091;-70
2022/04/02 12:13:00;;;;;;;6.30;4.45;;;;;;;;;;4954283;29;20030;-70
2022/04/02 12:15:27;;;;;;;6.63;4.13;;;;;;;;;;4953899;29;20027;-70
2022/04/02 12:18:00;;;;;;;5.50;4.20;;;;;;;;;;4954022;29;20023;-70
2022/04/02 12:20:28;;;;;;;6.97;4.28;;;;;;;;;;4939653;29;20031;-70
2022/04/02 12:23:10;;;;;;;8.25;4.10;;;;;;;;;;4955169;29;20027;-70
2022/04/02 12:25:38;;;;;;;5.22;3.88;;;;;;;;;;4953269;29;20047;-70
2022/04/02 12:28:15;;;;;;;5.55;4.05;;;;;;;;;;4953621;29;20043;-70
2022/04/02 12:30:43;;;;;;;7.05;4.68;;;;;;;;;;4953607;29;20550;-70
2022/04/02 12:33:14;;;;;;;5.13;4.00;;;;;;;;;;4953507;29;20403;-70
2022/04/02 12:35:42;;;;;;;6.30;4.07;;;;;;;;;;4953650;29;20501;-70
2022/04/02 12:38:22;;;;;;;6.57;4.22;;;;;;;;;;4954546;29;20031;-70
2022/04/02 12:40:49;;;;;;;4.93;3.58;;;;;;;;;;4953747;29;20019;-70
2022/04/02 12:43:23;;;;;;;6.35;4.55;;;;;;;;;;4953659;29;20041;-70
2022/04/02 12:45:49;;;;;;;6.18;4.63;;;;;;;;;;4953272;29;20496;-70
2022/04/02 12:48:20;;;;;;;9.15;4.93;;;;;;;;;;4939724;29;20023;-70
2022/04/02 12:50:53;;;;;;;5.10;3.65;;;;;;;;;;4953312;29;20030;-70
2022/04/02 12:53:31;;;;;;;4.88;3.65;;;;;;;;;;4954064;29;20027;-70
2022/04/02 12:55:58;;;;;;;5.47;3.60;;;;;;;;;;4953993;29;20027;-70
2022/04/02 12:58:32;;;;;;;5.13;3.80;;;;;;;;;;4953440;29;20031;-70
2022/04/02 13:01:10;;;;;;;6.50;3.72;;;;;;;;;;4952517;28;20496;-70
2022/04/02 13:03:42;;;;;;;4.72;3.28;;;;;;;;;;4939761;29;20448;-70
2022/04/02 13:06:14;;;;;;;4.90;3.30;;;;;;;;;;4953058;29;20046;-70
2022/04/02 13:08:52;;;;;;;8.32;4.00;;;;;;;;;;4946696;29;20041;-70
2022/04/02 13:11:32;;;;;;;5.97;4.13;;;;;;;;;;4953801;29;20029;-70
2022/04/02 13:14:03;;;;;;;5.32;3.67;;;;;;;;;;4953966;29;20041;-70
2022/04/02 13:16:38;;;;;;;7.30;3.20;;;;;;;;;;4954214;29;20027;-70
2022/04/02 13:21:51;;;;;;;6.18;3.40;;;;;;;;;;4952727;29;20504;-70
2022/04/02 13:24:31;;;;;;;4.35;2.97;;;;;;;;;;4952483;29;20019;-70
2022/04/02 13:27:27;;;;;;;8.25;3.20;;;;;;;;;;4945121;29;20047;-70
2022/04/02 13:30:07;;;;;;;5.13;3.25;;;;;;;;;;4940024;28;20094;-70
2022/04/02 13:33:05;;;;;;;3.92;3.25;;;;;;;;;;4939255;29;20027;-70
2022/04/02 13:35:51;;;;;;;4.32;2.85;;;;;;;;;;4938841;29;20031;-70
2022/04/02 13:38:37;;;;;;;3.45;2.80;;;;;;;;;;4953384;29;20029;-70
2022/04/02 13:41:04;;;;;;;6.57;3.22;;;;;;;;;;4953619;29;20020;-70
2022/04/02 13:43:30;;;;;;;5.72;3.00;;;;;;;;;;4953252;29;20031;-70
2022/04/02 13:46:04;;;;;;;4.78;2.97;;;;;;;;;;4952224;29;20027;-70
2022/04/02 13:48:34;;;;;;;3.83;2.75;;;;;;;;;;4952345;29;20380;-70
2022/04/02 13:51:10;;;;;;;3.78;2.90;;;;;;;;;;4952545;29;20027;-70
2022/04/02 13:53:38;;;;;;;4.82;2.97;;;;;;;;;;4952200;29;20030;-70
2022/04/02 13:56:12;;;;;;;4.20;2.67;;;;;;;;;;4953321;29;20444;-70
2022/04/02 13:58:41;;;;;;;3.17;2.70;;;;;;;;;;4952428;29;20408;-70
2022/04/02 14:01:10;;;;;;;3.60;2.95;;;;;;;;;;4920294;29;20028;-70
2022/04/02 14:03:38;;;;;;;5.72;2.92;;;;;;;;;;4936049;29;20409;-70
2022/04/02 14:06:07;;;;;;;3.45;2.58;;;;;;;;;;4952211;29;20085;-70
2022/04/02 14:08:34;;;;;;;5.82;3.10;;;;;;;;;;4944830;29;20037;-70
2022/04/02 14:11:06;;;;;;;5.43;2.70;;;;;;;;;;4954242;28;20374;-70
2022/04/02 14:13:35;;;;;;;7.20;3.53;;;;;;;;;;4956711;29;20027;-70
2022/04/02 14:16:03;;;;;;;4.85;3.42;;;;;;;;;;4956236;29;20034;-70
2022/04/02 14:18:34;;;;;;;6.43;2.97;;;;;;;;;;4955887;29;20019;-70
2022/04/02 14:21:01;;;;;;;4.38;2.80;;;;;;;;;;4955612;29;20042;-70
2022/04/02 14:23:40;;;;;;;6.53;3.92;;;;;;;;;;4948205;29;20519;-70
2022/04/02 14:26:25;;;;;;;4.18;2.92;;;;;;;;;;4956702;29;20043;-70
2022/04/02 14:28:52;;;;;;;4.10;2.50;;;;;;;;;;4953935;29;20038;-70
2022/04/02 14:31:37;;;;;;;4.25;2.80;;;;;;;;;;4942953;29;20496;-70
2022/04/02 14:34:09;;;;;;;3.20;2.60;;;;;;;;;;4955945;29;20039;-70
2022/04/02 14:36:54;;;;;;;5.32;2.85;;;;;;;;;;4955340;29;20381;-70
2022/04/02 14:39:39;;;;;;;3.63;2.30;;;;;;;;;;4955729;29;20025;-70
2022/04/02 14:42:06;;;;;;;6.78;2.25;;;;;;;;;;4949169;29;20041;-70
2022/04/02 14:44:51;;;;;;;4.57;2.92;;;;;;;;;;4955913;29;20022;-70
2022/04/02 14:47:47;;;;;;;4.93;3.00;;;;;;;;;;4956483;29;20023;-70
2022/04/02 14:50:35;;;;;;;4.68;2.75;;;;;;;;;;4956137;29;20399;-70
2022/04/02 14:53:08;;;;;;;4.55;2.47;;;;;;;;;;4956414;29;20020;-70
2022/04/02 14:55:53;;;;;;;3.72;2.70;;;;;;;;;;4955260;29;20035;-70
2022/04/02 14:58:37;;;;;;;6.40;3.03;;;;;;;;;;4955711;29;20015;-70
2022/04/02 15:01:04;;;;;;;4.43;2.92;;;;;;;;;;4955164;29;20027;-70
2022/04/02 15:03:30;;;;;;;6.00;3.50;;;;;;;;;;4955199;29;20035;-70
2022/04/02 15:06:07;;;;;;;4.57;3.00;;;;;;;;;;4954970;29;20024;-70